This is the latest recevied weather packets stored in our database for station/object LU4HH-11. If no packets are shown the sender has not sent any weather packets the latest 1 day(s).
| Time | Temp. | Humidity | Pressure | Rain* | Wind** | Luminosity | Snow |
|---|---|---|---|---|---|---|---|
| 1778103029 | 28.33° C | 54% | 949 hPa | - | - | 0 W/m² | - |
| 1778101199 | 28.33° C | 54% | 949 hPa | - | - | 0 W/m² | - |
| 1778100589 | 28.33° C | 54% | 949 hPa | - | - | 0 W/m² | - |
| 1778099369 | 28.33° C | 55% | 949 hPa | - | - | 0 W/m² | - |
| 1778098759 | 27.78° C | 56% | 950 hPa | - | - | 0 W/m² | - |
| 1778098149 | 27.22° C | 58% | 950 hPa | - | - | 0 W/m² | - |
| 1778097539 | 27.78° C | 56% | 950 hPa | - | - | 0 W/m² | - |
| 1778096929 | 27.78° C | 56% | 950 hPa | - | - | 0 W/m² | - |
| 1778096319 | 27.22° C | 57% | 950 hPa | - | - | 0 W/m² | - |
| 1778095709 | 26.67° C | 59% | 950 hPa | - | - | 0 W/m² | - |
| 1778095099 | 26.67° C | 59% | 950 hPa | - | - | 0 W/m² | - |
| 1778094489 | 25.56° C | 64% | 950 hPa | - | - | 0 W/m² | - |
| 1778093269 | 27.78° C | 57% | 950 hPa | - | - | 0 W/m² | - |
| 1778092049 | 27.78° C | 57% | 951 hPa | - | - | 0 W/m² | - |
| 1778091439 | 27.78° C | 57% | 951 hPa | - | - | 0 W/m² | - |
| 1778090829 | 27.22° C | 58% | 951 hPa | - | - | 0 W/m² | - |
| 1778088999 | 25.56° C | 63% | 951 hPa | - | - | 0 W/m² | - |
| 1778063304 | 26.67° C | 52% | 957 hPa | - | - | 0 W/m² | - |
| 1778062694 | 26.67° C | 52% | 957 hPa | - | - | 0 W/m² | - |
| 1778061474 | 26.67° C | 52% | 957 hPa | - | - | 0 W/m² | - |
| 1778060864 | 26.67° C | 52% | 957 hPa | - | - | 0 W/m² | - |
| 1778060254 | 27.22° C | 52% | 957 hPa | - | - | 0 W/m² | - |
| 1778059644 | 27.22° C | 51% | 957 hPa | - | - | 0 W/m² | - |
| 1778059034 | 27.22° C | 52% | 957 hPa | - | - | 0 W/m² | - |
| 1778057814 | 27.22° C | 51% | 957 hPa | - | - | 0 W/m² | - |
* Rain since midnight (hover to see other rain measurements)
** Current wind speed in m/s (hover to see current wind gust speed)